sensor_id;sensor_type;location;lat;lon;timestamp;pressure;altitude;pressure_sealevel;temperature;humidity
16481;BME280;44634;54.110;12.138;2023-03-14T00:02:26;98107.25;;;13.52;100.00
16481;BME280;44634;54.110;12.138;2023-03-14T00:04:54;98095.75;;;13.76;100.00
16481;BME280;44634;54.110;12.138;2023-03-14T00:07:23;98108.28;;;13.69;100.00
16481;BME280;44634;54.110;12.138;2023-03-14T00:09:51;98117.88;;;13.70;100.00
16481;BME280;44634;54.110;12.138;2023-03-14T00:12:19;98158.28;;;13.54;100.00
16481;BME280;44634;54.110;12.138;2023-03-14T00:14:48;98163.59;;;13.54;100.00
16481;BME280;44634;54.110;12.138;2023-03-14T00:17:16;98130.78;;;13.48;100.00
16481;BME280;44634;54.110;12.138;2023-03-14T00:19:44;98110.41;;;13.42;100.00
16481;BME280;44634;54.110;12.138;2023-03-14T00:22:11;98105.28;;;13.47;100.00
16481;BME280;44634;54.110;12.138;2023-03-14T00:24:39;98127.47;;;13.71;100.00
16481;BME280;44634;54.110;12.138;2023-03-14T00:27:07;98129.53;;;13.51;100.00
16481;BME280;44634;54.110;12.138;2023-03-14T00:29:35;98126.44;;;13.54;100.00
16481;BME280;44634;54.110;12.138;2023-03-14T00:32:04;98121.84;;;13.43;100.00
16481;BME280;44634;54.110;12.138;2023-03-14T00:34:32;98139.03;;;13.40;100.00
16481;BME280;44634;54.110;12.138;2023-03-14T00:37:00;98138.81;;;13.42;100.00
16481;BME280;44634;54.110;12.138;2023-03-14T00:39:28;98145.38;;;13.39;100.00
16481;BME280;44634;54.110;12.138;2023-03-14T00:41:56;98173.56;;;13.58;100.00
16481;BME280;44634;54.110;12.138;2023-03-14T00:44:23;98201.34;;;13.56;100.00
16481;BME280;44634;54.110;12.138;2023-03-14T00:46:51;98185.06;;;13.27;100.00
16481;BME280;44634;54.110;12.138;2023-03-14T00:49:20;98202.81;;;13.52;100.00
16481;BME280;44634;54.110;12.138;2023-03-14T00:51:48;98216.88;;;13.34;100.00
16481;BME280;44634;54.110;12.138;2023-03-14T00:54:17;98205.72;;;13.68;100.00
16481;BME280;44634;54.110;12.138;2023-03-14T00:56:45;98243.69;;;13.51;100.00
16481;BME280;44634;54.110;12.138;2023-03-14T00:59:13;98223.28;;;13.45;100.00
16481;BME280;44634;54.110;12.138;2023-03-14T01:01:43;98260.69;;;13.68;100.00
16481;BME280;44634;54.110;12.138;2023-03-14T01:04:11;98262.19;;;13.57;100.00
16481;BME280;44634;54.110;12.138;2023-03-14T01:06:40;98272.19;;;13.62;100.00
16481;BME280;44634;54.110;12.138;2023-03-14T01:09:08;98277.63;;;13.42;100.00
16481;BME280;44634;54.110;12.138;2023-03-14T01:11:36;98250.88;;;13.44;100.00
16481;BME280;44634;54.110;12.138;2023-03-14T01:14:04;98260.34;;;13.58;100.00
16481;BME280;44634;54.110;12.138;2023-03-14T01:16:34;98284.69;;;13.80;100.00
16481;BME280;44634;54.110;12.138;2023-03-14T01:19:02;98263.69;;;13.96;100.00
16481;BME280;44634;54.110;12.138;2023-03-14T01:21:32;98258.31;;;13.60;100.00
16481;BME280;44634;54.110;12.138;2023-03-14T01:24:03;98246.34;;;13.94;100.00
16481;BME280;44634;54.110;12.138;2023-03-14T01:26:33;98264.38;;;13.67;100.00
16481;BME280;44634;54.110;12.138;2023-03-14T01:29:01;98248.63;;;13.90;100.00
16481;BME280;44634;54.110;12.138;2023-03-14T01:31:30;98259.28;;;13.65;100.00
16481;BME280;44634;54.110;12.138;2023-03-14T01:33:58;98264.69;;;13.27;100.00
16481;BME280;44634;54.110;12.138;2023-03-14T01:36:25;98258.25;;;13.42;100.00
16481;BME280;44634;54.110;12.138;2023-03-14T01:38:55;98239.19;;;13.51;100.00
16481;BME280;44634;54.110;12.138;2023-03-14T01:41:25;98264.88;;;13.32;100.00
16481;BME280;44634;54.110;12.138;2023-03-14T01:43:53;98263.06;;;13.51;100.00
16481;BME280;44634;54.110;12.138;2023-03-14T01:46:37;98281.06;;;13.49;100.00
16481;BME280;44634;54.110;12.138;2023-03-14T01:49:13;98271.19;;;13.56;100.00
16481;BME280;44634;54.110;12.138;2023-03-14T01:51:46;98270.66;;;13.48;100.00
16481;BME280;44634;54.110;12.138;2023-03-14T01:54:19;98239.63;;;13.48;100.00
16481;BME280;44634;54.110;12.138;2023-03-14T01:56:53;98276.31;;;13.26;100.00
16481;BME280;44634;54.110;12.138;2023-03-14T01:59:23;98264.44;;;13.35;100.00
16481;BME280;44634;54.110;12.138;2023-03-14T02:01:51;98248.56;;;13.54;100.00
16481;BME280;44634;54.110;12.138;2023-03-14T02:04:21;98221.31;;;13.40;100.00
16481;BME280;44634;54.110;12.138;2023-03-14T02:06:54;98231.50;;;13.18;100.00
16481;BME280;44634;54.110;12.138;2023-03-14T02:09:23;98220.06;;;13.43;100.00
16481;BME280;44634;54.110;12.138;2023-03-14T02:11:53;98210.31;;;13.36;100.00
16481;BME280;44634;54.110;12.138;2023-03-14T02:14:29;98179.84;;;13.14;100.00
16481;BME280;44634;54.110;12.138;2023-03-14T02:16:58;98190.47;;;13.39;100.00
16481;BME280;44634;54.110;12.138;2023-03-14T02:19:35;98166.00;;;13.37;100.00
16481;BME280;44634;54.110;12.138;2023-03-14T02:22:09;98157.69;;;13.52;100.00
16481;BME280;44634;54.110;12.138;2023-03-14T02:24:42;98161.66;;;13.43;100.00
16481;BME280;44634;54.110;12.138;2023-03-14T02:27:14;98169.59;;;13.67;100.00
16481;BME280;44634;54.110;12.138;2023-03-14T02:29:49;98154.63;;;13.30;100.00
16481;BME280;44634;54.110;12.138;2023-03-14T02:32:19;98175.09;;;13.48;100.00
16481;BME280;44634;54.110;12.138;2023-03-14T02:34:52;98168.97;;;13.47;100.00
16481;BME280;44634;54.110;12.138;2023-03-14T02:37:24;98153.53;;;13.37;100.00
16481;BME280;44634;54.110;12.138;2023-03-14T02:39:54;98165.16;;;13.61;100.00
16481;BME280;44634;54.110;12.138;2023-03-14T02:42:23;98187.59;;;13.40;100.00
16481;BME280;44634;54.110;12.138;2023-03-14T02:44:53;98178.50;;;13.55;100.00
16481;BME280;44634;54.110;12.138;2023-03-14T02:47:27;98150.09;;;13.55;100.00
16481;BME280;44634;54.110;12.138;2023-03-14T02:50:00;98175.03;;;13.54;100.00
16481;BME280;44634;54.110;12.138;2023-03-14T02:52:29;98154.72;;;13.17;100.00
16481;BME280;44634;54.110;12.138;2023-03-14T02:54:57;98158.97;;;13.49;100.00
16481;BME280;44634;54.110;12.138;2023-03-14T02:57:26;98162.09;;;13.39;100.00
16481;BME280;44634;54.110;12.138;2023-03-14T02:59:58;98160.69;;;13.80;100.00
16481;BME280;44634;54.110;12.138;2023-03-14T03:02:26;98182.78;;;13.74;100.00
16481;BME280;44634;54.110;12.138;2023-03-14T03:04:54;98142.47;;;13.22;100.00
16481;BME280;44634;54.110;12.138;2023-03-14T03:07:21;98143.50;;;13.21;100.00
16481;BME280;44634;54.110;12.138;2023-03-14T03:09:49;98145.50;;;13.44;100.00
16481;BME280;44634;54.110;12.138;2023-03-14T03:12:17;98195.88;;;14.12;100.00
16481;BME280;44634;54.110;12.138;2023-03-14T03:14:46;98205.81;;;13.80;100.00
16481;BME280;44634;54.110;12.138;2023-03-14T03:17:14;98215.63;;;13.61;100.00
16481;BME280;44634;54.110;12.138;2023-03-14T03:19:42;98213.78;;;13.62;100.00
16481;BME280;44634;54.110;12.138;2023-03-14T03:22:10;98220.66;;;13.20;100.00
16481;BME280;44634;54.110;12.138;2023-03-14T03:24:37;98188.19;;;13.86;100.00
16481;BME280;44634;54.110;12.138;2023-03-14T03:27:05;98232.03;;;13.52;100.00
16481;BME280;44634;54.110;12.138;2023-03-14T03:29:33;98235.75;;;13.69;100.00
16481;BME280;44634;54.110;12.138;2023-03-14T03:32:02;98254.41;;;13.62;100.00
16481;BME280;44634;54.110;12.138;2023-03-14T03:34:30;98228.78;;;13.50;100.00
16481;BME280;44634;54.110;12.138;2023-03-14T03:36:58;98255.25;;;13.56;100.00
16481;BME280;44634;54.110;12.138;2023-03-14T03:39:26;98254.59;;;13.86;100.00
16481;BME280;44634;54.110;12.138;2023-03-14T03:41:54;98278.22;;;13.44;100.00
16481;BME280;44634;54.110;12.138;2023-03-14T03:44:22;98270.31;;;13.37;100.00
16481;BME280;44634;54.110;12.138;2023-03-14T03:46:49;98279.38;;;13.55;100.00
16481;BME280;44634;54.110;12.138;2023-03-14T03:49:18;98264.13;;;13.44;100.00
16481;BME280;44634;54.110;12.138;2023-03-14T03:51:46;98293.00;;;13.65;100.00
16481;BME280;44634;54.110;12.138;2023-03-14T03:54:14;98303.81;;;13.38;100.00
16481;BME280;44634;54.110;12.138;2023-03-14T03:56:42;98313.81;;;13.36;100.00
16481;BME280;44634;54.110;12.138;2023-03-14T03:59:09;98292.75;;;13.42;100.00
16481;BME280;44634;54.110;12.138;2023-03-14T04:01:37;98289.03;;;13.49;100.00
16481;BME280;44634;54.110;12.138;2023-03-14T04:04:05;98274.31;;;13.22;100.00
16481;BME280;44634;54.110;12.138;2023-03-14T04:06:35;98224.44;;;13.30;100.00
16481;BME280;44634;54.110;12.138;2023-03-14T04:09:03;98181.97;;;13.05;100.00
16481;BME280;44634;54.110;12.138;2023-03-14T04:11:31;98098.69;;;12.81;100.00
16481;BME280;44634;54.110;12.138;2023-03-14T04:13:58;98073.84;;;13.01;100.00
16481;BME280;44634;54.110;12.138;2023-03-14T04:16:26;98053.75;;;12.87;100.00
16481;BME280;44634;54.110;12.138;2023-03-14T04:18:54;98015.66;;;13.06;100.00
16481;BME280;44634;54.110;12.138;2023-03-14T04:21:22;98037.97;;;12.98;100.00
16481;BME280;44634;54.110;12.138;2023-03-14T04:23:51;98047.03;;;13.09;100.00
16481;BME280;44634;54.110;12.138;2023-03-14T04:26:18;98044.38;;;13.09;100.00
16481;BME280;44634;54.110;12.138;2023-03-14T04:28:47;98034.56;;;12.91;100.00
16481;BME280;44634;54.110;12.138;2023-03-14T04:31:16;98048.75;;;13.03;100.00
16481;BME280;44634;54.110;12.138;2023-03-14T04:33:45;98058.69;;;12.58;100.00
16481;BME280;44634;54.110;12.138;2023-03-14T04:36:13;98029.38;;;12.78;100.00
16481;BME280;44634;54.110;12.138;2023-03-14T04:38:41;98042.47;;;12.73;100.00
16481;BME280;44634;54.110;12.138;2023-03-14T04:41:10;98045.31;;;12.96;100.00
16481;BME280;44634;54.110;12.138;2023-03-14T04:43:38;98061.03;;;12.48;100.00
16481;BME280;44634;54.110;12.138;2023-03-14T04:46:06;98012.56;;;12.66;100.00
16481;BME280;44634;54.110;12.138;2023-03-14T04:48:34;98000.38;;;12.83;100.00
16481;BME280;44634;54.110;12.138;2023-03-14T04:51:04;98006.69;;;12.82;100.00
16481;BME280;44634;54.110;12.138;2023-03-14T04:53:32;98000.19;;;13.03;100.00
16481;BME280;44634;54.110;12.138;2023-03-14T04:56:00;98007.19;;;12.72;100.00
16481;BME280;44634;54.110;12.138;2023-03-14T04:58:30;97984.81;;;12.87;100.00
16481;BME280;44634;54.110;12.138;2023-03-14T05:01:02;97966.31;;;12.62;100.00
16481;BME280;44634;54.110;12.138;2023-03-14T05:03:30;97980.53;;;12.42;100.00
16481;BME280;44634;54.110;12.138;2023-03-14T05:05:57;97954.25;;;12.66;100.00
16481;BME280;44634;54.110;12.138;2023-03-14T05:08:27;97971.41;;;12.63;100.00
16481;BME280;44634;54.110;12.138;2023-03-14T05:10:55;97995.69;;;12.60;100.00
16481;BME280;44634;54.110;12.138;2023-03-14T05:13:23;97974.38;;;12.92;100.00
16481;BME280;44634;54.110;12.138;2023-03-14T05:15:52;98008.19;;;12.96;100.00
16481;BME280;44634;54.110;12.138;2023-03-14T05:18:21;98049.13;;;12.82;100.00
16481;BME280;44634;54.110;12.138;2023-03-14T05:20:50;98024.06;;;12.28;100.00
16481;BME280;44634;54.110;12.138;2023-03-14T05:23:18;98000.44;;;12.51;100.00
16481;BME280;44634;54.110;12.138;2023-03-14T05:25:46;98003.72;;;12.72;100.00
16481;BME280;44634;54.110;12.138;2023-03-14T05:28:14;97993.03;;;12.60;100.00
16481;BME280;44634;54.110;12.138;2023-03-14T05:30:41;98015.47;;;13.01;100.00
16481;BME280;44634;54.110;12.138;2023-03-14T05:33:10;98019.13;;;12.63;100.00
16481;BME280;44634;54.110;12.138;2023-03-14T05:35:38;98000.78;;;12.37;100.00
16481;BME280;44634;54.110;12.138;2023-03-14T05:38:06;98015.53;;;12.76;100.00
16481;BME280;44634;54.110;12.138;2023-03-14T05:40:34;98007.16;;;12.79;100.00
16481;BME280;44634;54.110;12.138;2023-03-14T05:43:01;98000.94;;;12.85;100.00
16481;BME280;44634;54.110;12.138;2023-03-14T05:45:29;98037.13;;;12.79;100.00
16481;BME280;44634;54.110;12.138;2023-03-14T05:48:00;98015.69;;;12.56;100.00
16481;BME280;44634;54.110;12.138;2023-03-14T05:50:29;98024.31;;;12.51;100.00
16481;BME280;44634;54.110;12.138;2023-03-14T05:52:57;98004.06;;;12.57;100.00
16481;BME280;44634;54.110;12.138;2023-03-14T05:55:25;98002.53;;;12.68;100.00
16481;BME280;44634;54.110;12.138;2023-03-14T05:57:52;98011.41;;;12.55;100.00
16481;BME280;44634;54.110;12.138;2023-03-14T06:00:21;98026.63;;;12.66;100.00
16481;BME280;44634;54.110;12.138;2023-03-14T06:02:49;98023.38;;;12.89;100.00
16481;BME280;44634;54.110;12.138;2023-03-14T06:05:17;98010.97;;;12.83;100.00
16481;BME280;44634;54.110;12.138;2023-03-14T06:07:46;98050.97;;;12.81;100.00
16481;BME280;44634;54.110;12.138;2023-03-14T06:10:14;98032.94;;;12.90;100.00
16481;BME280;44634;54.110;12.138;2023-03-14T06:12:42;98060.06;;;12.67;100.00
16481;BME280;44634;54.110;12.138;2023-03-14T06:15:10;98061.47;;;12.95;100.00
16481;BME280;44634;54.110;12.138;2023-03-14T06:17:38;98090.13;;;13.29;100.00
16481;BME280;44634;54.110;12.138;2023-03-14T06:20:06;98122.06;;;12.66;100.00
16481;BME280;44634;54.110;12.138;2023-03-14T06:22:34;98104.72;;;13.20;100.00
16481;BME280;44634;54.110;12.138;2023-03-14T06:25:04;98126.19;;;13.37;100.00
16481;BME280;44634;54.110;12.138;2023-03-14T06:27:32;98137.47;;;13.07;100.00
16481;BME280;44634;54.110;12.138;2023-03-14T06:30:00;98117.19;;;13.20;100.00
16481;BME280;44634;54.110;12.138;2023-03-14T06:32:28;98130.03;;;13.59;100.00
16481;BME280;44634;54.110;12.138;2023-03-14T06:34:56;98154.09;;;13.21;100.00
16481;BME280;44634;54.110;12.138;2023-03-14T06:37:27;98151.69;;;13.38;100.00
16481;BME280;44634;54.110;12.138;2023-03-14T06:39:55;98130.00;;;13.16;100.00
16481;BME280;44634;54.110;12.138;2023-03-14T06:42:24;98124.63;;;13.04;100.00
16481;BME280;44634;54.110;12.138;2023-03-14T06:44:52;98107.47;;;13.07;100.00
16481;BME280;44634;54.110;12.138;2023-03-14T06:47:20;98097.72;;;13.44;100.00
16481;BME280;44634;54.110;12.138;2023-03-14T06:49:48;98111.16;;;13.06;100.00
16481;BME280;44634;54.110;12.138;2023-03-14T06:52:17;98130.75;;;13.30;100.00
16481;BME280;44634;54.110;12.138;2023-03-14T06:54:44;98124.72;;;13.96;100.00
16481;BME280;44634;54.110;12.138;2023-03-14T06:57:12;98160.47;;;13.38;100.00
16481;BME280;44634;54.110;12.138;2023-03-14T06:59:41;98172.91;;;13.63;100.00
16481;BME280;44634;54.110;12.138;2023-03-14T07:02:10;98150.88;;;13.62;100.00
16481;BME280;44634;54.110;12.138;2023-03-14T07:04:39;98137.94;;;13.48;100.00
16481;BME280;44634;54.110;12.138;2023-03-14T07:07:06;98133.41;;;13.30;100.00
16481;BME280;44634;54.110;12.138;2023-03-14T07:09:34;98116.16;;;13.21;100.00
16481;BME280;44634;54.110;12.138;2023-03-14T07:12:03;98106.00;;;13.36;100.00
16481;BME280;44634;54.110;12.138;2023-03-14T07:14:31;98111.06;;;13.19;100.00
16481;BME280;44634;54.110;12.138;2023-03-14T07:17:00;98126.97;;;13.62;100.00
16481;BME280;44634;54.110;12.138;2023-03-14T07:19:28;98140.88;;;13.39;100.00
16481;BME280;44634;54.110;12.138;2023-03-14T07:21:55;98134.97;;;13.56;100.00
16481;BME280;44634;54.110;12.138;2023-03-14T07:24:23;98117.00;;;13.58;100.00
16481;BME280;44634;54.110;12.138;2023-03-14T07:26:51;98146.75;;;13.42;100.00
16481;BME280;44634;54.110;12.138;2023-03-14T07:29:20;98172.38;;;13.29;100.00
16481;BME280;44634;54.110;12.138;2023-03-14T07:31:48;98123.97;;;12.84;100.00
16481;BME280;44634;54.110;12.138;2023-03-14T07:34:18;98121.38;;;13.27;100.00
16481;BME280;44634;54.110;12.138;2023-03-14T07:36:46;98110.94;;;13.32;100.00
16481;BME280;44634;54.110;12.138;2023-03-14T07:39:14;98149.72;;;13.33;100.00
16481;BME280;44634;54.110;12.138;2023-03-14T07:41:43;98128.41;;;13.58;100.00
16481;BME280;44634;54.110;12.138;2023-03-14T07:44:10;98128.63;;;13.38;100.00
16481;BME280;44634;54.110;12.138;2023-03-14T07:46:38;98106.13;;;13.16;100.00
16481;BME280;44634;54.110;12.138;2023-03-14T07:49:06;98104.59;;;13.70;100.00
16481;BME280;44634;54.110;12.138;2023-03-14T07:51:35;98131.94;;;13.09;100.00
16481;BME280;44634;54.110;12.138;2023-03-14T07:54:03;98106.72;;;13.43;100.00
16481;BME280;44634;54.110;12.138;2023-03-14T07:56:31;98107.38;;;13.20;100.00
16481;BME280;44634;54.110;12.138;2023-03-14T07:58:58;98091.47;;;13.38;100.00
16481;BME280;44634;54.110;12.138;2023-03-14T08:01:26;98104.06;;;13.43;100.00
16481;BME280;44634;54.110;12.138;2023-03-14T08:03:54;98144.34;;;13.58;100.00
16481;BME280;44634;54.110;12.138;2023-03-14T08:06:22;98112.13;;;13.55;100.00
16481;BME280;44634;54.110;12.138;2023-03-14T08:08:51;98153.66;;;13.49;100.00
16481;BME280;44634;54.110;12.138;2023-03-14T08:11:19;98126.63;;;13.09;100.00
16481;BME280;44634;54.110;12.138;2023-03-14T08:13:46;98168.84;;;13.60;100.00
16481;BME280;44634;54.110;12.138;2023-03-14T08:16:16;98199.28;;;13.08;100.00
16481;BME280;44634;54.110;12.138;2023-03-14T08:18:45;98149.53;;;13.28;100.00
16481;BME280;44634;54.110;12.138;2023-03-14T08:21:13;98129.88;;;13.11;100.00
16481;BME280;44634;54.110;12.138;2023-03-14T08:23:41;98154.13;;;13.39;100.00
16481;BME280;44634;54.110;12.138;2023-03-14T08:26:10;98118.94;;;13.26;100.00
16481;BME280;44634;54.110;12.138;2023-03-14T08:28:38;98181.72;;;13.57;100.00
16481;BME280;44634;54.110;12.138;2023-03-14T08:31:06;98186.81;;;13.58;100.00
16481;BME280;44634;54.110;12.138;2023-03-14T08:33:34;98247.50;;;13.80;100.00
16481;BME280;44634;54.110;12.138;2023-03-14T08:36:02;98248.50;;;14.22;100.00
16481;BME280;44634;54.110;12.138;2023-03-14T08:38:30;98276.16;;;13.71;100.00
16481;BME280;44634;54.110;12.138;2023-03-14T08:40:59;98246.81;;;13.66;100.00
16481;BME280;44634;54.110;12.138;2023-03-14T08:43:29;98291.41;;;13.32;100.00
16481;BME280;44634;54.110;12.138;2023-03-14T08:45:58;98270.31;;;13.37;100.00
16481;BME280;44634;54.110;12.138;2023-03-14T08:48:26;98298.97;;;13.60;100.00
16481;BME280;44634;54.110;12.138;2023-03-14T08:50:53;98306.59;;;13.44;100.00
16481;BME280;44634;54.110;12.138;2023-03-14T08:53:21;98297.03;;;13.92;100.00
16481;BME280;44634;54.110;12.138;2023-03-14T08:55:52;98314.59;;;13.68;100.00
16481;BME280;44634;54.110;12.138;2023-03-14T08:58:20;98341.84;;;13.57;100.00
16481;BME280;44634;54.110;12.138;2023-03-14T09:00:50;98357.81;;;14.69;100.00
16481;BME280;44634;54.110;12.138;2023-03-14T09:03:18;98411.69;;;14.39;100.00
16481;BME280;44634;54.110;12.138;2023-03-14T09:05:46;98422.38;;;13.83;100.00
16481;BME280;44634;54.110;12.138;2023-03-14T09:08:14;98395.41;;;14.29;100.00
16481;BME280;44634;54.110;12.138;2023-03-14T09:10:41;98409.47;;;14.11;100.00
16481;BME280;44634;54.110;12.138;2023-03-14T09:13:09;98426.84;;;14.82;100.00
16481;BME280;44634;54.110;12.138;2023-03-14T09:15:37;98454.00;;;15.57;100.00
16481;BME280;44634;54.110;12.138;2023-03-14T09:18:07;98487.69;;;15.52;100.00
16481;BME280;44634;54.110;12.138;2023-03-14T09:20:34;98470.50;;;16.49;100.00
16481;BME280;44634;54.110;12.138;2023-03-14T09:23:02;98512.56;;;16.35;100.00
16481;BME280;44634;54.110;12.138;2023-03-14T09:25:30;98527.03;;;16.81;100.00
16481;BME280;44634;54.110;12.138;2023-03-14T09:27:58;98542.00;;;15.69;100.00
16481;BME280;44634;54.110;12.138;2023-03-14T09:30:25;98487.59;;;15.03;100.00
16481;BME280;44634;54.110;12.138;2023-03-14T09:32:53;98503.75;;;14.65;100.00
16481;BME280;44634;54.110;12.138;2023-03-14T09:35:23;98470.84;;;14.59;100.00
16481;BME280;44634;54.110;12.138;2023-03-14T09:37:51;98450.34;;;15.22;100.00
16481;BME280;44634;54.110;12.138;2023-03-14T09:40:19;98482.84;;;14.87;100.00
16481;BME280;44634;54.110;12.138;2023-03-14T09:42:48;98497.16;;;14.68;100.00
16481;BME280;44634;54.110;12.138;2023-03-14T09:45:23;98497.25;;;14.61;100.00
16481;BME280;44634;54.110;12.138;2023-03-14T09:47:53;98471.19;;;14.88;100.00
16481;BME280;44634;54.110;12.138;2023-03-14T09:50:31;98478.44;;;15.17;100.00
16481;BME280;44634;54.110;12.138;2023-03-14T09:53:03;98494.66;;;14.23;100.00
16481;BME280;44634;54.110;12.138;2023-03-14T09:55:32;98491.03;;;14.67;100.00
16481;BME280;44634;54.110;12.138;2023-03-14T09:58:04;98480.88;;;14.82;100.00
16481;BME280;44634;54.110;12.138;2023-03-14T10:00:36;98508.94;;;14.78;100.00
16481;BME280;44634;54.110;12.138;2023-03-14T10:03:20;98538.50;;;14.39;100.00
16481;BME280;44634;54.110;12.138;2023-03-14T10:05:50;98503.09;;;14.13;100.00
16481;BME280;44634;54.110;12.138;2023-03-14T10:08:18;98516.44;;;14.63;100.00
16481;BME280;44634;54.110;12.138;2023-03-14T10:10:46;98519.91;;;14.00;100.00
16481;BME280;44634;54.110;12.138;2023-03-14T10:13:16;98516.41;;;14.38;100.00
16481;BME280;44634;54.110;12.138;2023-03-14T10:15:48;98506.53;;;13.82;100.00
16481;BME280;44634;54.110;12.138;2023-03-14T10:18:16;98514.19;;;14.60;100.00
16481;BME280;44634;54.110;12.138;2023-03-14T10:20:45;98506.34;;;14.72;100.00
16481;BME280;44634;54.110;12.138;2023-03-14T10:23:26;98515.13;;;14.72;100.00
16481;BME280;44634;54.110;12.138;2023-03-14T10:26:06;98519.63;;;14.72;100.00
16481;BME280;44634;54.110;12.138;2023-03-14T10:28:38;98492.03;;;15.46;100.00
16481;BME280;44634;54.110;12.138;2023-03-14T10:31:06;98521.88;;;16.15;100.00
16481;BME280;44634;54.110;12.138;2023-03-14T10:33:36;98530.47;;;17.40;100.00
16481;BME280;44634;54.110;12.138;2023-03-14T10:36:14;98523.78;;;16.79;100.00
16481;BME280;44634;54.110;12.138;2023-03-14T10:38:46;98540.66;;;16.50;100.00
16481;BME280;44634;54.110;12.138;2023-03-14T10:41:17;98531.78;;;17.03;100.00
16481;BME280;44634;54.110;12.138;2023-03-14T10:43:49;98550.34;;;15.36;100.00
16481;BME280;44634;54.110;12.138;2023-03-14T10:46:19;98519.41;;;15.71;100.00
16481;BME280;44634;54.110;12.138;2023-03-14T10:48:48;98546.50;;;15.68;100.00
16481;BME280;44634;54.110;12.138;2023-03-14T10:51:19;98536.13;;;15.24;100.00
16481;BME280;44634;54.110;12.138;2023-03-14T10:53:50;98517.88;;;14.84;100.00
16481;BME280;44634;54.110;12.138;2023-03-14T10:56:24;98519.94;;;14.64;100.00
16481;BME280;44634;54.110;12.138;2023-03-14T10:58:53;98524.53;;;14.50;100.00
16481;BME280;44634;54.110;12.138;2023-03-14T11:01:34;98501.44;;;14.44;100.00
16481;BME280;44634;54.110;12.138;2023-03-14T11:04:14;98500.38;;;14.76;100.00
16481;BME280;44634;54.110;12.138;2023-03-14T11:06:50;98511.84;;;14.52;100.00
16481;BME280;44634;54.110;12.138;2023-03-14T11:09:29;98535.03;;;14.07;100.00
16481;BME280;44634;54.110;12.138;2023-03-14T11:12:13;98498.19;;;13.79;100.00
16481;BME280;44634;54.110;12.138;2023-03-14T11:14:50;98496.94;;;13.81;100.00
16481;BME280;44634;54.110;12.138;2023-03-14T11:17:25;98477.69;;;13.92;100.00
16481;BME280;44634;54.110;12.138;2023-03-14T11:20:08;98490.03;;;13.35;100.00
16481;BME280;44634;54.110;12.138;2023-03-14T11:22:44;98510.19;;;13.50;100.00
16481;BME280;44634;54.110;12.138;2023-03-14T11:25:22;98382.09;;;11.46;100.00
16481;BME280;44634;54.110;12.138;2023-03-14T11:28:00;98277.59;;;10.95;100.00
16481;BME280;44634;54.110;12.138;2023-03-14T11:30:34;98206.59;;;10.18;100.00
16481;BME280;44634;54.110;12.138;2023-03-14T11:33:08;98137.84;;;9.92;100.00
16481;BME280;44634;54.110;12.138;2023-03-14T11:35:45;98092.00;;;8.03;100.00
16481;BME280;44634;54.110;12.138;2023-03-14T11:38:27;98114.13;;;6.76;100.00
16481;BME280;44634;54.110;12.138;2023-03-14T11:40:58;98162.69;;;6.80;100.00
16481;BME280;44634;54.110;12.138;2023-03-14T11:43:29;98212.53;;;6.35;100.00
16481;BME280;44634;54.110;12.138;2023-03-14T11:46:03;98227.56;;;6.72;100.00
16481;BME280;44634;54.110;12.138;2023-03-14T11:48:40;98539.84;;;5.84;100.00
16481;BME280;44634;54.110;12.138;2023-03-14T11:51:16;98551.13;;;5.68;100.00
16481;BME280;44634;54.110;12.138;2023-03-14T11:53:53;98545.19;;;6.24;100.00
16481;BME280;44634;54.110;12.138;2023-03-14T11:56:31;98522.56;;;6.23;100.00
16481;BME280;44634;54.110;12.138;2023-03-14T11:59:03;98521.56;;;6.08;100.00
16481;BME280;44634;54.110;12.138;2023-03-14T12:01:40;98540.94;;;6.23;100.00
16481;BME280;44634;54.110;12.138;2023-03-14T12:04:18;98552.22;;;6.48;100.00
16481;BME280;44634;54.110;12.138;2023-03-14T12:06:48;98547.31;;;6.13;100.00
16481;BME280;44634;54.110;12.138;2023-03-14T12:09:18;98548.78;;;6.32;100.00
16481;BME280;44634;54.110;12.138;2023-03-14T12:11:50;98558.41;;;6.96;100.00
16481;BME280;44634;54.110;12.138;2023-03-14T12:14:25;98551.47;;;5.65;100.00
16481;BME280;44634;54.110;12.138;2023-03-14T12:16:55;98554.56;;;5.68;100.00
16481;BME280;44634;54.110;12.138;2023-03-14T12:19:34;98556.25;;;5.86;100.00
16481;BME280;44634;54.110;12.138;2023-03-14T12:22:18;98567.25;;;5.39;100.00
16481;BME280;44634;54.110;12.138;2023-03-14T12:24:51;98563.50;;;5.92;100.00
16481;BME280;44634;54.110;12.138;2023-03-14T12:30:28;98567.44;;;6.04;100.00
16481;BME280;44634;54.110;12.138;2023-03-14T12:33:30;98568.22;;;5.88;100.00
16481;BME280;44634;54.110;12.138;2023-03-14T12:36:29;98575.03;;;5.23;100.00
16481;BME280;44634;54.110;12.138;2023-03-14T12:39:15;98588.81;;;5.25;100.00
16481;BME280;44634;54.110;12.138;2023-03-14T12:41:52;98575.88;;;5.74;100.00
16481;BME280;44634;54.110;12.138;2023-03-14T12:44:41;98573.84;;;5.51;100.00
16481;BME280;44634;54.110;12.138;2023-03-14T12:47:52;98549.16;;;5.78;100.00
16481;BME280;44634;54.110;12.138;2023-03-14T12:50:26;98553.34;;;5.47;100.00
16481;BME280;44634;54.110;12.138;2023-03-14T12:53:15;98555.91;;;5.89;100.00
16481;BME280;44634;54.110;12.138;2023-03-14T12:55:49;98556.88;;;5.21;100.00
16481;BME280;44634;54.110;12.138;2023-03-14T12:58:25;98550.03;;;5.79;100.00
16481;BME280;44634;54.110;12.138;2023-03-14T13:01:00;98553.03;;;6.00;100.00